sensor_id;sensor_type;location;lat;lon;timestamp;P1;durP1;ratioP1;P2;durP2;ratioP2
59468;SDS011;45277;52.768;18.262;2022-08-03T00:00:56;9.32;;;6.28;;
59468;SDS011;45277;52.768;18.262;2022-08-03T00:02:28;11.80;;;5.63;;
59468;SDS011;45277;52.768;18.262;2022-08-03T00:04:00;10.65;;;5.82;;
59468;SDS011;45277;52.768;18.262;2022-08-03T00:05:31;9.68;;;5.55;;
59468;SDS011;45277;52.768;18.262;2022-08-03T00:07:04;8.73;;;5.05;;
59468;SDS011;45277;52.768;18.262;2022-08-03T00:08:37;10.45;;;5.90;;
59468;SDS011;45277;52.768;18.262;2022-08-03T00:10:08;12.25;;;6.88;;
59468;SDS011;45277;52.768;18.262;2022-08-03T00:11:40;13.75;;;6.15;;
59468;SDS011;45277;52.768;18.262;2022-08-03T00:13:11;10.77;;;6.10;;
59468;SDS011;45277;52.768;18.262;2022-08-03T00:14:43;14.05;;;6.95;;
59468;SDS011;45277;52.768;18.262;2022-08-03T00:16:16;9.68;;;6.07;;
59468;SDS011;45277;52.768;18.262;2022-08-03T00:17:48;9.85;;;6.30;;
59468;SDS011;45277;52.768;18.262;2022-08-03T00:19:20;10.73;;;7.05;;
59468;SDS011;45277;52.768;18.262;2022-08-03T00:20:51;11.05;;;6.53;;
59468;SDS011;45277;52.768;18.262;2022-08-03T00:22:23;15.10;;;7.50;;
59468;SDS011;45277;52.768;18.262;2022-08-03T00:23:55;14.10;;;7.70;;
59468;SDS011;45277;52.768;18.262;2022-08-03T00:25:26;9.85;;;7.20;;
59468;SDS011;45277;52.768;18.262;2022-08-03T00:26:58;11.18;;;7.32;;
59468;SDS011;45277;52.768;18.262;2022-08-03T00:28:29;13.20;;;7.60;;
59468;SDS011;45277;52.768;18.262;2022-08-03T00:30:03;16.60;;;9.55;;
59468;SDS011;45277;52.768;18.262;2022-08-03T00:31:35;17.98;;;9.07;;
59468;SDS011;45277;52.768;18.262;2022-08-03T00:33:09;13.52;;;8.80;;
59468;SDS011;45277;52.768;18.262;2022-08-03T00:34:41;13.40;;;8.18;;
59468;SDS011;45277;52.768;18.262;2022-08-03T00:36:12;16.23;;;9.05;;
59468;SDS011;45277;52.768;18.262;2022-08-03T00:37:43;18.67;;;9.48;;
59468;SDS011;45277;52.768;18.262;2022-08-03T00:39:15;17.73;;;10.02;;
59468;SDS011;45277;52.768;18.262;2022-08-03T00:40:47;17.10;;;10.38;;
59468;SDS011;45277;52.768;18.262;2022-08-03T00:42:19;17.63;;;10.20;;
59468;SDS011;45277;52.768;18.262;2022-08-03T00:43:53;14.68;;;9.57;;
59468;SDS011;45277;52.768;18.262;2022-08-03T00:45:26;15.98;;;9.15;;
59468;SDS011;45277;52.768;18.262;2022-08-03T00:47:01;16.02;;;9.40;;
59468;SDS011;45277;52.768;18.262;2022-08-03T00:48:32;15.65;;;8.82;;
59468;SDS011;45277;52.768;18.262;2022-08-03T00:50:03;15.30;;;9.48;;
59468;SDS011;45277;52.768;18.262;2022-08-03T00:51:35;18.42;;;9.55;;
59468;SDS011;45277;52.768;18.262;2022-08-03T00:53:09;15.48;;;8.93;;
59468;SDS011;45277;52.768;18.262;2022-08-03T00:54:44;13.40;;;8.80;;
59468;SDS011;45277;52.768;18.262;2022-08-03T00:56:17;14.73;;;8.18;;
59468;SDS011;45277;52.768;18.262;2022-08-03T00:57:48;13.80;;;7.50;;
59468;SDS011;45277;52.768;18.262;2022-08-03T00:59:22;11.80;;;7.32;;
59468;SDS011;45277;52.768;18.262;2022-08-03T01:00:54;11.15;;;7.03;;
59468;SDS011;45277;52.768;18.262;2022-08-03T01:02:26;12.48;;;6.88;;
59468;SDS011;45277;52.768;18.262;2022-08-03T01:04:00;10.93;;;6.90;;
59468;SDS011;45277;52.768;18.262;2022-08-03T01:05:48;12.95;;;7.00;;
59468;SDS011;45277;52.768;18.262;2022-08-03T01:09:40;14.48;;;7.35;;
59468;SDS011;45277;52.768;18.262;2022-08-03T01:11:34;11.93;;;6.97;;
59468;SDS011;45277;52.768;18.262;2022-08-03T01:17:23;11.68;;;6.80;;
59468;SDS011;45277;52.768;18.262;2022-08-03T01:22:36;16.42;;;6.82;;
59468;SDS011;45277;52.768;18.262;2022-08-03T01:24:49;13.95;;;7.28;;
59468;SDS011;45277;52.768;18.262;2022-08-03T01:30:08;10.90;;;7.18;;
59468;SDS011;45277;52.768;18.262;2022-08-03T01:31:52;13.73;;;7.25;;
59468;SDS011;45277;52.768;18.262;2022-08-03T01:33:42;14.63;;;7.72;;
59468;SDS011;45277;52.768;18.262;2022-08-03T01:35:31;10.95;;;7.05;;
59468;SDS011;45277;52.768;18.262;2022-08-03T01:37:14;14.55;;;6.88;;
59468;SDS011;45277;52.768;18.262;2022-08-03T01:38:59;11.30;;;6.88;;
59468;SDS011;45277;52.768;18.262;2022-08-03T01:40:33;16.80;;;6.97;;
59468;SDS011;45277;52.768;18.262;2022-08-03T01:42:09;10.65;;;7.00;;
59468;SDS011;45277;52.768;18.262;2022-08-03T01:43:44;10.40;;;7.03;;
59468;SDS011;45277;52.768;18.262;2022-08-03T01:45:20;14.90;;;7.03;;
59468;SDS011;45277;52.768;18.262;2022-08-03T01:46:55;13.48;;;6.88;;
59468;SDS011;45277;52.768;18.262;2022-08-03T01:48:30;12.05;;;7.00;;
59468;SDS011;45277;52.768;18.262;2022-08-03T01:50:03;10.55;;;6.65;;
59468;SDS011;45277;52.768;18.262;2022-08-03T01:51:38;12.15;;;7.75;;
59468;SDS011;45277;52.768;18.262;2022-08-03T01:53:13;15.30;;;7.38;;
59468;SDS011;45277;52.768;18.262;2022-08-03T01:54:52;15.57;;;7.40;;
59468;SDS011;45277;52.768;18.262;2022-08-03T01:56:26;16.17;;;7.28;;
59468;SDS011;45277;52.768;18.262;2022-08-03T01:57:59;9.45;;;6.97;;
59468;SDS011;45277;52.768;18.262;2022-08-03T01:59:34;12.60;;;7.05;;
59468;SDS011;45277;52.768;18.262;2022-08-03T02:01:13;13.25;;;6.43;;
59468;SDS011;45277;52.768;18.262;2022-08-03T02:02:48;12.02;;;7.22;;
59468;SDS011;45277;52.768;18.262;2022-08-03T02:04:22;11.13;;;6.88;;
59468;SDS011;45277;52.768;18.262;2022-08-03T02:05:59;10.50;;;7.00;;
59468;SDS011;45277;52.768;18.262;2022-08-03T02:07:33;12.82;;;6.95;;
59468;SDS011;45277;52.768;18.262;2022-08-03T02:09:07;14.63;;;7.25;;
59468;SDS011;45277;52.768;18.262;2022-08-03T02:10:41;10.27;;;7.00;;
59468;SDS011;45277;52.768;18.262;2022-08-03T02:12:15;11.40;;;7.05;;
59468;SDS011;45277;52.768;18.262;2022-08-03T02:13:49;8.68;;;6.88;;
59468;SDS011;45277;52.768;18.262;2022-08-03T02:15:22;12.50;;;7.00;;
59468;SDS011;45277;52.768;18.262;2022-08-03T02:17:01;14.55;;;7.50;;
59468;SDS011;45277;52.768;18.262;2022-08-03T02:18:33;18.42;;;7.03;;
59468;SDS011;45277;52.768;18.262;2022-08-03T02:20:11;15.43;;;7.72;;
59468;SDS011;45277;52.768;18.262;2022-08-03T02:21:44;13.60;;;7.03;;
59468;SDS011;45277;52.768;18.262;2022-08-03T02:23:17;14.68;;;7.25;;
59468;SDS011;45277;52.768;18.262;2022-08-03T02:24:52;16.38;;;7.68;;
59468;SDS011;45277;52.768;18.262;2022-08-03T02:26:24;11.52;;;7.20;;
59468;SDS011;45277;52.768;18.262;2022-08-03T02:28:06;10.38;;;6.93;;
59468;SDS011;45277;52.768;18.262;2022-08-03T02:29:41;12.02;;;6.90;;
59468;SDS011;45277;52.768;18.262;2022-08-03T02:31:23;12.20;;;7.10;;
59468;SDS011;45277;52.768;18.262;2022-08-03T02:33:01;12.07;;;6.80;;
59468;SDS011;45277;52.768;18.262;2022-08-03T02:34:35;13.05;;;6.18;;
59468;SDS011;45277;52.768;18.262;2022-08-03T02:36:09;13.43;;;6.35;;
59468;SDS011;45277;52.768;18.262;2022-08-03T02:37:45;12.65;;;6.90;;
59468;SDS011;45277;52.768;18.262;2022-08-03T02:39:21;15.13;;;6.75;;
59468;SDS011;45277;52.768;18.262;2022-08-03T02:40:56;11.10;;;6.65;;
59468;SDS011;45277;52.768;18.262;2022-08-03T02:42:31;12.60;;;6.25;;
59468;SDS011;45277;52.768;18.262;2022-08-03T02:44:08;11.52;;;7.18;;
59468;SDS011;45277;52.768;18.262;2022-08-03T02:45:43;21.40;;;7.60;;
59468;SDS011;45277;52.768;18.262;2022-08-03T02:47:19;13.88;;;6.57;;
59468;SDS011;45277;52.768;18.262;2022-08-03T02:48:52;12.80;;;7.00;;
59468;SDS011;45277;52.768;18.262;2022-08-03T02:50:25;9.65;;;6.30;;
59468;SDS011;45277;52.768;18.262;2022-08-03T02:52:01;11.63;;;7.30;;
59468;SDS011;45277;52.768;18.262;2022-08-03T02:53:35;15.30;;;6.85;;
59468;SDS011;45277;52.768;18.262;2022-08-03T02:55:14;8.73;;;6.65;;
59468;SDS011;45277;52.768;18.262;2022-08-03T02:56:48;13.98;;;7.28;;
59468;SDS011;45277;52.768;18.262;2022-08-03T02:58:22;11.38;;;6.70;;
59468;SDS011;45277;52.768;18.262;2022-08-03T02:59:56;10.85;;;6.90;;
59468;SDS011;45277;52.768;18.262;2022-08-03T03:01:30;10.85;;;6.38;;
59468;SDS011;45277;52.768;18.262;2022-08-03T03:03:02;11.90;;;7.30;;
59468;SDS011;45277;52.768;18.262;2022-08-03T03:04:37;14.10;;;8.68;;
59468;SDS011;45277;52.768;18.262;2022-08-03T03:06:16;14.18;;;7.18;;
59468;SDS011;45277;52.768;18.262;2022-08-03T03:07:49;15.38;;;7.93;;
59468;SDS011;45277;52.768;18.262;2022-08-03T03:09:23;9.75;;;7.50;;
59468;SDS011;45277;52.768;18.262;2022-08-03T03:10:57;16.48;;;7.97;;
59468;SDS011;45277;52.768;18.262;2022-08-03T03:12:32;10.82;;;7.80;;
59468;SDS011;45277;52.768;18.262;2022-08-03T03:14:07;12.50;;;7.07;;
59468;SDS011;45277;52.768;18.262;2022-08-03T03:15:42;10.95;;;7.97;;
59468;SDS011;45277;52.768;18.262;2022-08-03T03:17:14;12.73;;;7.90;;
59468;SDS011;45277;52.768;18.262;2022-08-03T03:18:50;14.25;;;8.18;;
59468;SDS011;45277;52.768;18.262;2022-08-03T03:20:26;15.10;;;8.10;;
59468;SDS011;45277;52.768;18.262;2022-08-03T03:22:00;11.70;;;7.65;;
59468;SDS011;45277;52.768;18.262;2022-08-03T03:23:34;11.82;;;7.57;;
59468;SDS011;45277;52.768;18.262;2022-08-03T03:25:11;14.05;;;8.45;;
59468;SDS011;45277;52.768;18.262;2022-08-03T03:26:42;14.27;;;8.20;;
59468;SDS011;45277;52.768;18.262;2022-08-03T03:28:15;12.18;;;8.65;;
59468;SDS011;45277;52.768;18.262;2022-08-03T03:29:47;14.65;;;9.38;;
59468;SDS011;45277;52.768;18.262;2022-08-03T03:31:20;14.15;;;9.20;;
59468;SDS011;45277;52.768;18.262;2022-08-03T03:32:52;15.30;;;9.65;;
59468;SDS011;45277;52.768;18.262;2022-08-03T03:34:23;13.70;;;9.45;;
59468;SDS011;45277;52.768;18.262;2022-08-03T03:35:57;15.38;;;9.18;;
59468;SDS011;45277;52.768;18.262;2022-08-03T03:37:29;14.50;;;9.27;;
59468;SDS011;45277;52.768;18.262;2022-08-03T03:39:01;13.98;;;9.00;;
59468;SDS011;45277;52.768;18.262;2022-08-03T03:40:42;15.20;;;9.32;;
59468;SDS011;45277;52.768;18.262;2022-08-03T03:42:14;17.05;;;9.10;;
59468;SDS011;45277;52.768;18.262;2022-08-03T03:43:46;14.68;;;9.65;;
59468;SDS011;45277;52.768;18.262;2022-08-03T03:45:22;13.25;;;8.65;;
59468;SDS011;45277;52.768;18.262;2022-08-03T03:46:55;17.25;;;9.50;;
59468;SDS011;45277;52.768;18.262;2022-08-03T03:48:27;15.52;;;9.05;;
59468;SDS011;45277;52.768;18.262;2022-08-03T03:49:59;13.05;;;8.43;;
59468;SDS011;45277;52.768;18.262;2022-08-03T03:51:32;15.15;;;8.82;;
59468;SDS011;45277;52.768;18.262;2022-08-03T03:53:07;12.63;;;9.20;;
59468;SDS011;45277;52.768;18.262;2022-08-03T03:54:41;15.77;;;9.10;;
59468;SDS011;45277;52.768;18.262;2022-08-03T03:56:15;15.02;;;8.48;;
59468;SDS011;45277;52.768;18.262;2022-08-03T03:57:48;13.63;;;8.02;;
59468;SDS011;45277;52.768;18.262;2022-08-03T03:59:20;12.60;;;8.75;;
59468;SDS011;45277;52.768;18.262;2022-08-03T04:00:51;14.45;;;8.27;;
59468;SDS011;45277;52.768;18.262;2022-08-03T04:02:23;17.92;;;8.95;;
59468;SDS011;45277;52.768;18.262;2022-08-03T04:03:55;13.75;;;8.57;;
59468;SDS011;45277;52.768;18.262;2022-08-03T04:05:27;14.52;;;9.05;;
59468;SDS011;45277;52.768;18.262;2022-08-03T04:07:17;20.25;;;8.65;;
59468;SDS011;45277;52.768;18.262;2022-08-03T04:09:08;13.73;;;8.35;;
59468;SDS011;45277;52.768;18.262;2022-08-03T04:11:13;16.27;;;8.95;;
59468;SDS011;45277;52.768;18.262;2022-08-03T04:12:59;16.30;;;8.52;;
59468;SDS011;45277;52.768;18.262;2022-08-03T04:14:34;14.05;;;8.20;;
59468;SDS011;45277;52.768;18.262;2022-08-03T04:16:13;14.02;;;8.73;;
59468;SDS011;45277;52.768;18.262;2022-08-03T04:17:54;15.98;;;8.57;;
59468;SDS011;45277;52.768;18.262;2022-08-03T04:21:07;16.25;;;8.80;;
59468;SDS011;45277;52.768;18.262;2022-08-03T04:22:41;16.50;;;8.65;;
59468;SDS011;45277;52.768;18.262;2022-08-03T04:24:13;13.23;;;7.97;;
59468;SDS011;45277;52.768;18.262;2022-08-03T04:25:47;14.07;;;8.35;;
59468;SDS011;45277;52.768;18.262;2022-08-03T04:27:21;16.17;;;8.65;;
59468;SDS011;45277;52.768;18.262;2022-08-03T04:28:56;15.48;;;8.30;;
59468;SDS011;45277;52.768;18.262;2022-08-03T04:30:30;16.02;;;8.93;;
59468;SDS011;45277;52.768;18.262;2022-08-03T04:32:07;15.02;;;8.95;;
59468;SDS011;45277;52.768;18.262;2022-08-03T04:33:42;13.18;;;8.40;;
59468;SDS011;45277;52.768;18.262;2022-08-03T04:35:16;12.32;;;8.30;;
59468;SDS011;45277;52.768;18.262;2022-08-03T04:36:48;21.15;;;9.68;;
59468;SDS011;45277;52.768;18.262;2022-08-03T04:38:32;19.35;;;8.15;;
59468;SDS011;45277;52.768;18.262;2022-08-03T04:42:03;29.48;;;9.95;;
59468;SDS011;45277;52.768;18.262;2022-08-03T04:43:36;17.05;;;9.60;;
59468;SDS011;45277;52.768;18.262;2022-08-03T04:45:11;16.48;;;9.50;;
59468;SDS011;45277;52.768;18.262;2022-08-03T04:46:44;20.42;;;9.23;;
59468;SDS011;45277;52.768;18.262;2022-08-03T04:48:17;17.17;;;8.82;;
59468;SDS011;45277;52.768;18.262;2022-08-03T04:49:50;21.73;;;9.68;;
59468;SDS011;45277;52.768;18.262;2022-08-03T04:51:23;18.95;;;8.45;;
59468;SDS011;45277;52.768;18.262;2022-08-03T04:54:41;15.85;;;7.82;;
59468;SDS011;45277;52.768;18.262;2022-08-03T04:56:14;11.15;;;7.38;;
59468;SDS011;45277;52.768;18.262;2022-08-03T04:57:45;20.98;;;8.40;;
59468;SDS011;45277;52.768;18.262;2022-08-03T04:59:16;10.63;;;7.25;;
59468;SDS011;45277;52.768;18.262;2022-08-03T05:00:49;13.65;;;8.35;;
59468;SDS011;45277;52.768;18.262;2022-08-03T05:02:21;14.13;;;8.68;;
59468;SDS011;45277;52.768;18.262;2022-08-03T05:03:53;14.10;;;8.27;;
59468;SDS011;45277;52.768;18.262;2022-08-03T05:05:25;12.30;;;8.40;;
59468;SDS011;45277;52.768;18.262;2022-08-03T05:06:56;16.15;;;7.63;;
59468;SDS011;45277;52.768;18.262;2022-08-03T05:08:28;13.05;;;7.40;;
59468;SDS011;45277;52.768;18.262;2022-08-03T05:09:59;15.18;;;8.27;;
59468;SDS011;45277;52.768;18.262;2022-08-03T05:11:31;16.27;;;8.32;;
59468;SDS011;45277;52.768;18.262;2022-08-03T05:13:02;9.90;;;8.10;;
59468;SDS011;45277;52.768;18.262;2022-08-03T05:14:34;12.77;;;8.27;;
59468;SDS011;45277;52.768;18.262;2022-08-03T05:16:10;16.50;;;8.23;;
59468;SDS011;45277;52.768;18.262;2022-08-03T05:17:43;12.68;;;8.30;;
59468;SDS011;45277;52.768;18.262;2022-08-03T05:19:16;12.70;;;8.05;;
59468;SDS011;45277;52.768;18.262;2022-08-03T05:20:47;13.73;;;8.35;;
59468;SDS011;45277;52.768;18.262;2022-08-03T05:22:20;12.55;;;7.68;;
59468;SDS011;45277;52.768;18.262;2022-08-03T05:23:52;11.23;;;7.07;;
59468;SDS011;45277;52.768;18.262;2022-08-03T05:25:26;14.98;;;7.95;;
59468;SDS011;45277;52.768;18.262;2022-08-03T05:27:00;12.38;;;7.68;;
59468;SDS011;45277;52.768;18.262;2022-08-03T05:28:33;14.98;;;7.22;;
59468;SDS011;45277;52.768;18.262;2022-08-03T05:30:06;12.57;;;7.90;;
59468;SDS011;45277;52.768;18.262;2022-08-03T05:31:38;14.15;;;8.07;;
59468;SDS011;45277;52.768;18.262;2022-08-03T05:33:10;27.67;;;8.20;;
59468;SDS011;45277;52.768;18.262;2022-08-03T05:34:42;12.13;;;7.63;;
59468;SDS011;45277;52.768;18.262;2022-08-03T05:36:14;10.10;;;7.00;;
59468;SDS011;45277;52.768;18.262;2022-08-03T05:37:46;12.85;;;7.70;;
59468;SDS011;45277;52.768;18.262;2022-08-03T05:39:17;11.55;;;7.20;;
59468;SDS011;45277;52.768;18.262;2022-08-03T05:40:49;10.73;;;7.10;;
59468;SDS011;45277;52.768;18.262;2022-08-03T05:42:22;13.55;;;7.32;;
59468;SDS011;45277;52.768;18.262;2022-08-03T05:43:59;12.02;;;6.93;;
59468;SDS011;45277;52.768;18.262;2022-08-03T05:45:32;14.38;;;6.90;;
59468;SDS011;45277;52.768;18.262;2022-08-03T05:47:04;12.57;;;7.05;;
59468;SDS011;45277;52.768;18.262;2022-08-03T05:48:36;11.35;;;7.30;;
59468;SDS011;45277;52.768;18.262;2022-08-03T05:50:08;13.23;;;6.82;;
59468;SDS011;45277;52.768;18.262;2022-08-03T05:51:44;9.05;;;6.40;;
59468;SDS011;45277;52.768;18.262;2022-08-03T05:53:16;12.75;;;6.30;;
59468;SDS011;45277;52.768;18.262;2022-08-03T05:54:48;17.33;;;6.85;;
59468;SDS011;45277;52.768;18.262;2022-08-03T05:56:24;10.85;;;5.88;;
59468;SDS011;45277;52.768;18.262;2022-08-03T05:57:56;10.43;;;6.05;;
59468;SDS011;45277;52.768;18.262;2022-08-03T05:59:27;10.70;;;6.20;;
59468;SDS011;45277;52.768;18.262;2022-08-03T06:01:00;10.05;;;6.35;;
59468;SDS011;45277;52.768;18.262;2022-08-03T06:02:31;9.75;;;6.50;;
59468;SDS011;45277;52.768;18.262;2022-08-03T06:04:04;9.20;;;6.28;;
59468;SDS011;45277;52.768;18.262;2022-08-03T06:05:36;12.50;;;6.80;;
59468;SDS011;45277;52.768;18.262;2022-08-03T06:07:09;8.70;;;6.38;;
59468;SDS011;45277;52.768;18.262;2022-08-03T06:08:40;12.10;;;7.18;;
59468;SDS011;45277;52.768;18.262;2022-08-03T06:10:12;11.10;;;6.45;;
59468;SDS011;45277;52.768;18.262;2022-08-03T06:11:44;11.70;;;6.40;;
59468;SDS011;45277;52.768;18.262;2022-08-03T06:13:18;13.00;;;6.88;;
59468;SDS011;45277;52.768;18.262;2022-08-03T06:14:50;10.10;;;6.72;;
59468;SDS011;45277;52.768;18.262;2022-08-03T06:16:22;9.25;;;6.07;;
59468;SDS011;45277;52.768;18.262;2022-08-03T06:17:54;15.05;;;6.65;;
59468;SDS011;45277;52.768;18.262;2022-08-03T06:19:27;10.95;;;6.50;;
59468;SDS011;45277;52.768;18.262;2022-08-03T06:20:59;11.75;;;6.47;;
59468;SDS011;45277;52.768;18.262;2022-08-03T06:22:30;11.23;;;6.00;;
59468;SDS011;45277;52.768;18.262;2022-08-03T06:24:02;9.52;;;6.38;;
59468;SDS011;45277;52.768;18.262;2022-08-03T06:25:34;13.45;;;6.50;;
59468;SDS011;45277;52.768;18.262;2022-08-03T06:27:06;8.13;;;5.78;;
59468;SDS011;45277;52.768;18.262;2022-08-03T06:28:38;9.75;;;6.05;;
59468;SDS011;45277;52.768;18.262;2022-08-03T06:30:10;9.48;;;6.07;;
59468;SDS011;45277;52.768;18.262;2022-08-03T06:31:44;10.13;;;5.90;;
59468;SDS011;45277;52.768;18.262;2022-08-03T06:33:16;9.48;;;6.00;;
59468;SDS011;45277;52.768;18.262;2022-08-03T06:34:47;10.15;;;6.10;;
59468;SDS011;45277;52.768;18.262;2022-08-03T06:36:19;10.38;;;6.13;;
59468;SDS011;45277;52.768;18.262;2022-08-03T06:37:51;7.38;;;5.90;;
59468;SDS011;45277;52.768;18.262;2022-08-03T06:39:22;9.85;;;5.65;;
59468;SDS011;45277;52.768;18.262;2022-08-03T06:40:54;12.52;;;6.05;;
59468;SDS011;45277;52.768;18.262;2022-08-03T06:42:26;11.02;;;5.03;;
59468;SDS011;45277;52.768;18.262;2022-08-03T06:43:57;12.52;;;5.00;;
59468;SDS011;45277;52.768;18.262;2022-08-03T06:45:29;9.38;;;5.60;;
59468;SDS011;45277;52.768;18.262;2022-08-03T06:47:02;7.50;;;5.15;;
59468;SDS011;45277;52.768;18.262;2022-08-03T06:48:35;7.30;;;5.50;;
59468;SDS011;45277;52.768;18.262;2022-08-03T06:50:07;7.05;;;5.18;;
59468;SDS011;45277;52.768;18.262;2022-08-03T06:51:42;10.00;;;5.00;;
59468;SDS011;45277;52.768;18.262;2022-08-03T06:53:14;8.95;;;4.93;;
59468;SDS011;45277;52.768;18.262;2022-08-03T06:54:48;5.70;;;4.60;;
59468;SDS011;45277;52.768;18.262;2022-08-03T06:56:21;6.80;;;4.85;;
59468;SDS011;45277;52.768;18.262;2022-08-03T06:57:55;6.72;;;5.07;;
59468;SDS011;45277;52.768;18.262;2022-08-03T06:59:26;6.38;;;4.70;;
59468;SDS011;45277;52.768;18.262;2022-08-03T07:00:59;7.85;;;4.68;;
59468;SDS011;45277;52.768;18.262;2022-08-03T07:02:31;7.57;;;4.80;;
59468;SDS011;45277;52.768;18.262;2022-08-03T07:05:43;5.88;;;4.40;;
59468;SDS011;45277;52.768;18.262;2022-08-03T07:07:25;4.97;;;4.18;;
59468;SDS011;45277;52.768;18.262;2022-08-03T07:08:58;7.00;;;4.30;;
59468;SDS011;45277;52.768;18.262;2022-08-03T07:10:29;7.63;;;4.72;;
59468;SDS011;45277;52.768;18.262;2022-08-03T07:12:00;7.03;;;4.45;;
59468;SDS011;45277;52.768;18.262;2022-08-03T07:13:33;6.53;;;4.50;;
59468;SDS011;45277;52.768;18.262;2022-08-03T07:15:06;7.32;;;4.65;;
59468;SDS011;45277;52.768;18.262;2022-08-03T07:16:38;7.60;;;4.47;;
59468;SDS011;45277;52.768;18.262;2022-08-03T07:18:10;8.32;;;4.13;;
59468;SDS011;45277;52.768;18.262;2022-08-03T07:19:44;5.00;;;4.28;;
59468;SDS011;45277;52.768;18.262;2022-08-03T07:21:15;6.38;;;4.03;;
59468;SDS011;45277;52.768;18.262;2022-08-03T07:22:47;7.90;;;4.05;;
59468;SDS011;45277;52.768;18.262;2022-08-03T07:24:19;5.57;;;3.90;;
59468;SDS011;45277;52.768;18.262;2022-08-03T07:25:51;4.78;;;4.05;;
59468;SDS011;45277;52.768;18.262;2022-08-03T07:27:23;5.30;;;3.90;;
59468;SDS011;45277;52.768;18.262;2022-08-03T07:28:57;7.53;;;3.65;;
59468;SDS011;45277;52.768;18.262;2022-08-03T07:30:33;4.40;;;3.97;;
59468;SDS011;45277;52.768;18.262;2022-08-03T07:32:05;5.45;;;3.97;;
59468;SDS011;45277;52.768;18.262;2022-08-03T07:33:37;6.97;;;3.90;;
59468;SDS011;45277;52.768;18.262;2022-08-03T07:35:11;5.22;;;3.67;;
59468;SDS011;45277;52.768;18.262;2022-08-03T07:36:42;9.13;;;3.97;;
59468;SDS011;45277;52.768;18.262;2022-08-03T07:38:13;7.00;;;3.97;;
59468;SDS011;45277;52.768;18.262;2022-08-03T07:39:48;7.13;;;3.50;;
59468;SDS011;45277;52.768;18.262;2022-08-03T07:41:20;6.47;;;4.05;;
59468;SDS011;45277;52.768;18.262;2022-08-03T07:42:52;6.10;;;4.05;;
59468;SDS011;45277;52.768;18.262;2022-08-03T07:44:24;4.18;;;3.78;;
59468;SDS011;45277;52.768;18.262;2022-08-03T07:45:56;3.88;;;3.33;;
59468;SDS011;45277;52.768;18.262;2022-08-03T07:47:28;4.28;;;3.60;;
59468;SDS011;45277;52.768;18.262;2022-08-03T07:49:00;4.68;;;3.47;;
59468;SDS011;45277;52.768;18.262;2022-08-03T07:50:34;5.05;;;3.60;;
59468;SDS011;45277;52.768;18.262;2022-08-03T07:52:07;5.95;;;3.53;;
59468;SDS011;45277;52.768;18.262;2022-08-03T07:53:57;4.28;;;3.50;;
59468;SDS011;45277;52.768;18.262;2022-08-03T07:55:31;4.07;;;3.67;;
59468;SDS011;45277;52.768;18.262;2022-08-03T07:57:05;5.78;;;3.75;;
59468;SDS011;45277;52.768;18.262;2022-08-03T07:58:39;5.63;;;3.63;;
59468;SDS011;45277;52.768;18.262;2022-08-03T08:00:17;5.50;;;3.55;;
59468;SDS011;45277;52.768;18.262;2022-08-03T08:01:50;4.00;;;3.60;;
59468;SDS011;45277;52.768;18.262;2022-08-03T08:03:23;5.22;;;3.60;;
59468;SDS011;45277;52.768;18.262;2022-08-03T08:04:59;6.13;;;3.15;;
59468;SDS011;45277;52.768;18.262;2022-08-03T08:06:30;6.97;;;3.40;;
59468;SDS011;45277;52.768;18.262;2022-08-03T08:08:03;5.45;;;3.00;;
59468;SDS011;45277;52.768;18.262;2022-08-03T08:09:36;4.63;;;3.10;;
59468;SDS011;45277;52.768;18.262;2022-08-03T08:11:08;7.15;;;3.05;;
59468;SDS011;45277;52.768;18.262;2022-08-03T08:12:40;7.13;;;3.22;;
59468;SDS011;45277;52.768;18.262;2022-08-03T08:14:11;4.38;;;3.05;;
59468;SDS011;45277;52.768;18.262;2022-08-03T08:15:43;3.70;;;3.30;;
59468;SDS011;45277;52.768;18.262;2022-08-03T08:17:23;5.70;;;3.40;;
59468;SDS011;45277;52.768;18.262;2022-08-03T08:19:00;5.30;;;3.85;;
59468;SDS011;45277;52.768;18.262;2022-08-03T08:20:32;6.03;;;4.00;;
59468;SDS011;45277;52.768;18.262;2022-08-03T08:22:09;4.40;;;3.42;;
59468;SDS011;45277;52.768;18.262;2022-08-03T08:23:42;4.88;;;3.17;;
59468;SDS011;45277;52.768;18.262;2022-08-03T08:25:15;5.82;;;3.85;;
59468;SDS011;45277;52.768;18.262;2022-08-03T08:26:48;10.38;;;3.50;;
59468;SDS011;45277;52.768;18.262;2022-08-03T08:28:20;4.22;;;3.60;;
59468;SDS011;45277;52.768;18.262;2022-08-03T08:30:03;9.30;;;3.38;;
59468;SDS011;45277;52.768;18.262;2022-08-03T08:31:40;4.65;;;3.15;;
59468;SDS011;45277;52.768;18.262;2022-08-03T08:33:12;5.13;;;3.42;;
59468;SDS011;45277;52.768;18.262;2022-08-03T08:34:45;6.20;;;3.40;;
59468;SDS011;45277;52.768;18.262;2022-08-03T08:36:19;9.48;;;3.13;;
59468;SDS011;45277;52.768;18.262;2022-08-03T08:37:52;3.22;;;2.90;;
59468;SDS011;45277;52.768;18.262;2022-08-03T08:39:26;4.55;;;2.72;;
59468;SDS011;45277;52.768;18.262;2022-08-03T08:40:59;4.47;;;2.83;;
59468;SDS011;45277;52.768;18.262;2022-08-03T08:42:31;7.75;;;3.17;;
59468;SDS011;45277;52.768;18.262;2022-08-03T08:44:03;5.35;;;3.00;;
59468;SDS011;45277;52.768;18.262;2022-08-03T08:45:39;5.45;;;2.85;;
59468;SDS011;45277;52.768;18.262;2022-08-03T08:47:11;5.15;;;2.92;;
59468;SDS011;45277;52.768;18.262;2022-08-03T08:50:21;6.10;;;2.90;;
59468;SDS011;45277;52.768;18.262;2022-08-03T08:51:54;4.50;;;3.17;;
59468;SDS011;45277;52.768;18.262;2022-08-03T08:53:35;3.97;;;2.90;;
59468;SDS011;45277;52.768;18.262;2022-08-03T08:55:10;3.55;;;2.80;;
59468;SDS011;45277;52.768;18.262;2022-08-03T08:56:48;4.40;;;2.60;;
59468;SDS011;45277;52.768;18.262;2022-08-03T08:58:22;4.32;;;2.60;;
59468;SDS011;45277;52.768;18.262;2022-08-03T09:00:01;6.40;;;2.60;;
59468;SDS011;45277;52.768;18.262;2022-08-03T09:01:35;3.55;;;2.40;;
59468;SDS011;45277;52.768;18.262;2022-08-03T09:03:06;4.20;;;2.67;;
59468;SDS011;45277;52.768;18.262;2022-08-03T09:04:38;4.00;;;2.45;;
59468;SDS011;45277;52.768;18.262;2022-08-03T09:06:11;4.72;;;2.80;;
59468;SDS011;45277;52.768;18.262;2022-08-03T09:07:43;4.78;;;2.75;;
59468;SDS011;45277;52.768;18.262;2022-08-03T09:09:24;6.97;;;3.08;;
59468;SDS011;45277;52.768;18.262;2022-08-03T09:11:05;5.90;;;2.80;;
59468;SDS011;45277;52.768;18.262;2022-08-03T09:12:48;4.03;;;2.20;;
59468;SDS011;45277;52.768;18.262;2022-08-03T09:14:21;4.18;;;2.58;;
59468;SDS011;45277;52.768;18.262;2022-08-03T09:17:43;3.75;;;2.28;;
59468;SDS011;45277;52.768;18.262;2022-08-03T09:19:15;2.75;;;2.05;;
59468;SDS011;45277;52.768;18.262;2022-08-03T09:20:46;2.38;;;1.95;;
59468;SDS011;45277;52.768;18.262;2022-08-03T09:22:18;2.58;;;2.05;;
59468;SDS011;45277;52.768;18.262;2022-08-03T09:23:54;6.63;;;2.15;;
59468;SDS011;45277;52.768;18.262;2022-08-03T09:25:33;6.00;;;2.38;;
59468;SDS011;45277;52.768;18.262;2022-08-03T09:27:10;3.80;;;2.13;;
59468;SDS011;45277;52.768;18.262;2022-08-03T09:28:43;3.58;;;2.10;;
59468;SDS011;45277;52.768;18.262;2022-08-03T09:30:17;5.85;;;1.90;;
59468;SDS011;45277;52.768;18.262;2022-08-03T09:31:49;2.85;;;1.90;;
59468;SDS011;45277;52.768;18.262;2022-08-03T09:33:31;3.72;;;2.00;;
59468;SDS011;45277;52.768;18.262;2022-08-03T09:35:03;8.57;;;2.40;;
59468;SDS011;45277;52.768;18.262;2022-08-03T09:38:16;5.63;;;2.25;;
59468;SDS011;45277;52.768;18.262;2022-08-03T09:39:58;3.28;;;2.00;;